Название Размер Сиды, личи Добавлен
Гай Гульотта, Джефф Лин / Кокаиновые короли (2015) MP3, 160 kbps 562.90 МБ 2 39 27.03.2017 Скачать
Песня года Беларуси - 2016. В Минске (2016-2017) DVB от AND03AND 4.25 ГБ 69 8 14.04.2017 Скачать
Подборка книг о подводном плавании (22 книги) / Группа авторов (1958-2009) PDF, FB2 93.70 МБ 51 33 03.04.2017 Скачать
Славянский базар 2007. Антология (2007) DVB от AND03AND 1012.52 МБ 19 59 14.04.2017 Скачать
Волейбол / Мужчины / Чемпионат России 2015-2016 / 10-й тур / Белогорье (Белгород) - Динамо (Краснодар) / Спорт [23.01.2016 г., Волейбол, IPTV, H.264, RU] 1.53 ГБ 2 31 07.04.2017 Скачать
(Progressive house, electro house) Tiesto - Club Life 436 (2015-08-08), MP3 (image), 238 kbps 193.74 МБ 78 22 21.03.2017 Скачать
Патрик Модиано - Улица тёмных лавок (2017) MP3 232.33 МБ 48 65 19.04.2017 Скачать
ROH Wrestling 25.03.2017 [2017, Рестлинг, WEBRip][1080p][Eng] 669.56 МБ 15 63 31.03.2017 Скачать
Texas - The Greatest Hits [Special Edition] (2000) FLAC 516.67 МБ 88 27 20.04.2017 Скачать
Sheryl Crow - The Very Best Of Sheryl Crow (2003) FLAC 479.69 МБ 80 53 20.04.2017 Скачать
VA - Top 40 Nederlandse [Неделя № 17] (2015) MP3 369.97 МБ 2 26 20.04.2017 Скачать
VA - Chillout Bar Lounge: Brazilian Lounge Project (2015) MP3 121.39 МБ 54 62 20.04.2017 Скачать
VA - Show Me Your Body Erotic Lounge and Chill Out (2015) MP3 157.49 МБ 67 86 20.04.2017 Скачать
VA - Deep House Deluxe Selection #3 Best Deep House House Tech House Hits (2015) MP3 457.85 МБ 6 57 20.04.2017 Скачать
VA - Pro-Agressive House (2015) MP3 400.76 МБ 27 85 20.04.2017 Скачать
VA - Nu-Disco Essentials Vol.12 (2015) MP3 352.44 МБ 22 30 20.04.2017 Скачать
VA - Disco Collector (2015) MP3 439.02 МБ 60 20 20.04.2017 Скачать
VA - Club Bangers (2015) MP3 309.20 МБ 88 38 20.04.2017 Скачать
VA - Electro Nights (2015) MP3 333.36 МБ 15 10 20.04.2017 Скачать
VA - Melodic Trance (2015) MP3 121.82 МБ 58 28 20.04.2017 Скачать
VA - Prog-House (2015) MP3 410.63 МБ 50 47 20.04.2017 Скачать
VA - Deep House Sensations (2015) MP3 432.86 МБ 74 78 20.04.2017 Скачать
VA - Chill out Culture Volume 01 (2015) MP3 207.04 МБ 26 6 20.04.2017 Скачать
VA - Mysteries of Underground Music, Vol. 6 (2015) MP3 249.09 МБ 32 57 20.04.2017 Скачать
VA - Las Salinas Ibiza Beach Chill, Vol. 2 (2015) MP3 318.92 МБ 55 79 20.04.2017 Скачать
VA - Power Trance (2015) MP3 137.15 МБ 66 33 20.04.2017 Скачать
Paul van Dyk - The Politics Of Dancing 3 (2015) FLAC 1.19 ГБ 76 71 20.04.2017 Скачать
VA - Prog House (2015) MP3 384.13 МБ 88 14 20.04.2017 Скачать
VA - Indie Dance Boom Bems (2015) MP3 207.00 МБ 34 77 20.04.2017 Скачать
VA - Asian Temple Garden - Finest Buddha Chill Lounge Bar To Relax (2015) MP3 196.42 МБ 59 87 20.04.2017 Скачать
VA - Globaltronica: African Electronic Sounds (2015) MP3 207.73 МБ 67 22 20.04.2017 Скачать
VA - House Vip [06.05] (2015) MP3 359.70 МБ 83 37 20.04.2017 Скачать
(Chillout)(Lounge) VA - Barista Lounge: Rome, Vol. 2 2015, MP3, 320 Kbps 312.94 МБ 46 75 20.04.2017 Скачать
VA - We All Love Spring Lounge and Chill out Selection (2015) MP3 134.86 МБ 36 7 20.04.2017 Скачать
VA - Serious Club Sounds Vol. 7 (2015) MP3 247.26 МБ 33 21 20.04.2017 Скачать
VA - The Meaning of Life Lounge and Chillout Vol 2 (2015) MP3 122.76 МБ 83 38 20.04.2017 Скачать
VA - Top Miami (2015) MP3 217.29 МБ 37 72 20.04.2017 Скачать
VA - On the Beach 20 Lounge and Chill-Out Tunes (2015) MP3 265.97 МБ 50 20 20.04.2017 Скачать
VA - Trance Maniacs Party: Trancefer Wave #154 (2015) MP3 451.52 МБ 42 17 20.04.2017 Скачать
VA - Blue Trance (2015) MP3 157.59 МБ 11 20 20.04.2017 Скачать
VA - Future Trance Vol. 72 (Special Edition) (2015) MP3 698.41 МБ 49 85 20.04.2017 Скачать
VA - Acid Jazz Everything's Going to the Beat (Digitally Remastered) (2015) MP3 102.56 МБ 3 49 20.04.2017 Скачать
VA - Big City Trance Volume 90 (2015) MP3 427.10 МБ 69 52 20.04.2017 Скачать
VA - Vocal Trance Temptation Volume 49 (2015) MP3 429.46 МБ 9 43 20.04.2017 Скачать
VA - Techno Science (Amazing Techno Tracks) (2015) MP3 322.72 МБ 2 78 20.04.2017 Скачать
VA - Clubtraxxx Vol. 14 (2015) MP3 699.96 МБ 28 38 20.04.2017 Скачать
VA - Power of Electronic Dance Music, Vol. 2 (2015) MP3 471.89 МБ 59 23 20.04.2017 Скачать
VA - Car Candy Selected By I-Rebeat, Vol. 1 (Continuous Dj Mix) (2015) MP3 445.22 МБ 73 76 20.04.2017 Скачать
VA - Autumn Lounge Vol 2 Awesome Relaxing and Calm Music (2015) MP3 296.06 МБ 63 65 20.04.2017 Скачать
VA - EDM Mania (2014) MP3 132.24 МБ 36 8 20.04.2017 Скачать
VA - Techno Lauft, Vol. 1 (2015) MP3 402.31 МБ 85 31 20.04.2017 Скачать
VA - Deep Treasures (2015) MP3 258.14 МБ 44 46 20.04.2017 Скачать
VA - Weekend Weapons 78 (2015) MP3 122.54 МБ 50 85 20.04.2017 Скачать
VA - Techno Minimal Vol 49 (2015) MP3 220.18 МБ 17 22 20.04.2017 Скачать
VA - Electronic Matrix BERLIN (2015) MP3 252.13 МБ 55 18 20.04.2017 Скачать
(Downtempo, Lounge, ChillOut) VA - Las Salinas Ibiza Beach Chill Vol 2 - 2015, MP3, 320 kbps 318.92 МБ 69 64 20.04.2017 Скачать